createdAt,value
2019-05-10T00:00:34.548Z,99.80
2019-05-10T00:03:21.152Z,99.60
2019-05-10T00:06:08.064Z,99.80
2019-05-10T00:08:44.851Z,99.70
2019-05-10T00:11:23.773Z,99.90
2019-05-10T00:13:54.126Z,99.80
2019-05-10T00:16:23.959Z,99.60
2019-05-10T00:18:52.699Z,99.60
2019-05-10T00:21:21.399Z,99.70
2019-05-10T00:23:50.109Z,99.60
2019-05-10T00:26:18.835Z,99.80
2019-05-10T00:28:47.520Z,99.90
2019-05-10T00:31:16.218Z,99.90
2019-05-10T00:33:44.954Z,99.90
2019-05-10T00:36:13.640Z,99.90
2019-05-10T00:38:42.154Z,99.90
2019-05-10T00:41:10.608Z,99.90
2019-05-10T00:43:39.310Z,99.90
2019-05-10T00:46:08.006Z,99.90
2019-05-10T00:48:36.801Z,99.90
2019-05-10T00:51:05.578Z,99.90
2019-05-10T00:53:34.280Z,99.90
2019-05-10T00:56:03.165Z,99.90
2019-05-10T00:58:31.871Z,99.90
2019-05-10T01:01:00.298Z,99.90
2019-05-10T01:03:29.027Z,99.90
2019-05-10T01:05:57.443Z,99.90
2019-05-10T01:08:26.136Z,99.90
2019-05-10T01:10:54.866Z,99.90
2019-05-10T01:13:23.567Z,99.90
2019-05-10T01:15:52.248Z,99.90
2019-05-10T01:18:20.961Z,99.90
2019-05-10T01:20:49.674Z,99.90
2019-05-10T01:23:18.380Z,99.90
2019-05-10T01:25:47.112Z,99.90
2019-05-10T01:28:15.795Z,99.90
2019-05-10T01:30:44.492Z,99.90
2019-05-10T01:33:13.203Z,99.90
2019-05-10T01:35:41.891Z,99.90
2019-05-10T01:38:10.595Z,99.90
2019-05-10T01:40:39.052Z,99.90
2019-05-10T01:43:07.725Z,99.90
2019-05-10T01:45:36.407Z,99.90
2019-05-10T01:48:05.188Z,99.90
2019-05-10T01:50:33.866Z,99.90
2019-05-10T01:53:02.569Z,99.90
2019-05-10T01:55:31.306Z,99.90
2019-05-10T01:58:00.122Z,99.90
2019-05-10T02:00:28.818Z,99.90
2019-05-10T02:02:57.274Z,99.90
2019-05-10T02:05:25.968Z,99.90
2019-05-10T02:07:54.662Z,99.90
2019-05-10T02:10:23.171Z,99.90
2019-05-10T02:12:51.585Z,99.90
2019-05-10T02:15:20.018Z,99.90
2019-05-10T02:17:48.727Z,99.90
2019-05-10T02:20:18.180Z,99.90
2019-05-10T02:22:46.871Z,99.90
2019-05-10T02:25:15.675Z,99.90
2019-05-10T02:27:44.356Z,99.90
2019-05-10T02:30:13.200Z,99.90
2019-05-10T02:32:41.939Z,99.90
2019-05-10T02:35:10.770Z,99.90
2019-05-10T02:37:39.455Z,99.90
2019-05-10T02:40:08.635Z,99.90
2019-05-10T02:42:37.190Z,99.90
2019-05-10T02:45:09.132Z,99.90
2019-05-10T02:47:37.914Z,99.90
2019-05-10T02:50:08.531Z,99.90
2019-05-10T02:52:37.222Z,99.90
2019-05-10T02:55:07.485Z,99.90
2019-05-10T02:57:37.494Z,99.90
2019-05-10T03:00:07.704Z,99.90
2019-05-10T03:02:37.939Z,99.90
2019-05-10T03:05:10.148Z,99.90
2019-05-10T03:07:39.364Z,99.90
2019-05-10T03:10:10.822Z,99.90
2019-05-10T03:12:41.288Z,99.90
2019-05-10T03:15:12.256Z,99.90
2019-05-10T03:17:42.220Z,99.90
2019-05-10T03:20:12.575Z,99.90
2019-05-10T03:22:43.578Z,99.90
2019-05-10T03:25:14.615Z,99.90
2019-05-10T03:27:43.278Z,99.90
2019-05-10T03:30:12.502Z,99.90
2019-05-10T03:32:41.232Z,99.90
2019-05-10T03:35:10.039Z,99.90
2019-05-10T03:37:38.892Z,99.90
2019-05-10T03:40:09.608Z,99.90
2019-05-10T03:42:38.299Z,99.90
2019-05-10T03:45:08.152Z,99.90
2019-05-10T03:47:36.926Z,99.90
2019-05-10T03:50:07.532Z,99.90
2019-05-10T03:52:36.224Z,99.90
2019-05-10T03:55:06.172Z,99.90
2019-05-10T03:57:34.859Z,99.90
2019-05-10T04:00:05.269Z,99.90
2019-05-10T04:02:34.901Z,99.90
2019-05-10T04:05:04.726Z,99.90
2019-05-10T04:07:33.404Z,99.90
2019-05-10T04:10:02.139Z,99.90
2019-05-10T04:12:30.820Z,99.90
2019-05-10T04:14:59.521Z,99.90
2019-05-10T04:17:27.975Z,99.90
2019-05-10T04:19:56.651Z,99.90
2019-05-10T04:22:25.735Z,99.90
2019-05-10T04:24:54.457Z,99.90
2019-05-10T04:27:32.147Z,99.90
2019-05-10T04:29:53.605Z,99.90
2019-05-10T04:32:25.505Z,99.90
2019-05-10T04:34:54.000Z,99.90
2019-05-10T04:37:22.802Z,99.90
2019-05-10T04:39:51.541Z,99.90
2019-05-10T04:42:20.241Z,99.90
2019-05-10T04:44:53.172Z,99.80
2019-05-10T04:47:19.634Z,99.70
2019-05-10T04:49:48.341Z,99.80
2019-05-10T04:52:17.159Z,99.90
2019-05-10T04:54:45.888Z,99.90
2019-05-10T04:57:14.597Z,99.30
2019-05-10T04:59:43.021Z,99.10
2019-05-10T05:02:11.471Z,98.20
2019-05-10T05:04:40.292Z,97.70
2019-05-10T05:07:09.009Z,97.50
2019-05-10T05:09:37.712Z,97.00
2019-05-10T05:12:06.404Z,96.70
2019-05-10T05:14:35.763Z,96.10
2019-05-10T05:17:04.712Z,95.90
2019-05-10T05:19:33.427Z,96.10
2019-05-10T05:22:02.119Z,96.00
2019-05-10T05:24:30.853Z,95.30
2019-05-10T05:26:59.647Z,92.00
2019-05-10T05:29:28.066Z,82.40
2019-05-10T05:32:01.426Z,71.30
2019-05-10T05:34:27.286Z,63.90
2019-05-10T05:36:56.035Z,59.30
2019-05-10T05:39:24.885Z,54.10
2019-05-10T05:41:56.545Z,50.90
2019-05-10T05:44:26.286Z,49.50
2019-05-10T05:46:54.572Z,49.00
2019-05-10T05:49:23.308Z,47.30
2019-05-10T05:51:52.087Z,48.50
2019-05-10T05:54:22.585Z,49.00
2019-05-10T05:56:53.337Z,48.20
2019-05-10T05:59:24.141Z,47.10
2019-05-10T06:01:52.393Z,45.40
2019-05-10T06:04:21.096Z,46.70
2019-05-10T06:06:53.692Z,45.00
2019-05-10T06:09:20.362Z,43.90
2019-05-10T06:11:48.791Z,43.20
2019-05-10T06:14:17.227Z,43.30
2019-05-10T06:16:51.105Z,41.40
2019-05-10T06:19:19.880Z,41.80
2019-05-10T06:21:46.551Z,42.60
2019-05-10T06:24:15.852Z,43.40
2019-05-10T06:26:44.954Z,45.40
2019-05-10T06:29:17.511Z,44.70
2019-05-10T06:31:44.167Z,44.50
2019-05-10T06:34:12.933Z,44.10
2019-05-10T06:36:41.635Z,42.60
2019-05-10T06:39:10.440Z,44.20
2019-05-10T06:41:39.168Z,45.60
2019-05-10T06:44:07.879Z,44.70
2019-05-10T06:46:36.347Z,42.60
2019-05-10T06:49:08.476Z,42.10
2019-05-10T06:51:35.190Z,40.70
2019-05-10T06:54:04.000Z,39.70
2019-05-10T06:56:32.493Z,40.90
2019-05-10T06:59:13.124Z,42.70
2019-05-10T07:01:31.485Z,42.90
2019-05-10T07:04:00.354Z,44.20
2019-05-10T07:06:29.089Z,44.20
2019-05-10T07:08:59.477Z,48.00
2019-05-10T07:11:28.154Z,50.70
2019-05-10T07:13:56.874Z,50.40
2019-05-10T07:16:26.165Z,51.90
2019-05-10T07:19:00.646Z,48.00
2019-05-10T07:21:25.592Z,48.70
2019-05-10T07:23:54.061Z,53.70
2019-05-10T07:26:24.681Z,54.50
2019-05-10T07:28:57.472Z,50.70
2019-05-10T07:31:24.003Z,51.00
2019-05-10T07:33:52.847Z,50.10
2019-05-10T07:36:27.595Z,50.00
2019-05-10T07:38:51.848Z,51.60
2019-05-10T07:41:26.544Z,53.20
2019-05-10T07:43:51.157Z,58.00
2019-05-10T07:46:19.957Z,58.70
2019-05-10T07:48:53.290Z,59.80
2019-05-10T07:51:22.886Z,58.40
2019-05-10T07:53:49.754Z,58.90
2019-05-10T07:56:18.530Z,57.40
2019-05-10T07:58:47.310Z,56.30
2019-05-10T08:01:29.323Z,57.40
2019-05-10T08:03:52.132Z,59.40
2019-05-10T08:06:19.216Z,63.30
2019-05-10T08:08:49.636Z,60.70
2019-05-10T08:11:19.072Z,62.10
2019-05-10T08:13:48.645Z,61.60
2019-05-10T08:16:22.682Z,60.40
2019-05-10T08:18:49.800Z,57.10
2019-05-10T08:21:22.454Z,57.90
2019-05-10T08:23:48.464Z,62.10
2019-05-10T08:26:21.954Z,65.30
2019-05-10T08:28:47.589Z,64.00
2019-05-10T08:31:16.362Z,59.10
2019-05-10T08:33:56.359Z,63.20
2019-05-10T08:36:15.470Z,62.10
2019-05-10T08:38:47.186Z,64.10
2019-05-10T08:41:18.125Z,65.10
2019-05-10T08:43:46.896Z,64.80
2019-05-10T08:46:19.509Z,61.60
2019-05-10T08:48:53.081Z,62.10
2019-05-10T08:51:18.534Z,64.50
2019-05-10T08:53:52.375Z,66.60
2019-05-10T08:56:23.492Z,70.80
2019-05-10T08:58:48.301Z,73.50
2019-05-10T09:01:26.565Z,76.00
2019-05-10T09:03:55.117Z,74.30
2019-05-10T09:06:17.885Z,73.60
2019-05-10T09:08:46.322Z,70.00
2019-05-10T09:11:16.421Z,71.00
2019-05-10T09:13:46.294Z,65.40
2019-05-10T09:16:14.936Z,64.80
2019-05-10T09:18:50.277Z,60.30
2019-05-10T09:21:14.486Z,59.80
2019-05-10T09:23:43.707Z,63.00
2019-05-10T09:26:16.480Z,65.30
2019-05-10T09:28:47.699Z,66.60
2019-05-10T09:31:20.777Z,68.00
2019-05-10T09:33:49.779Z,67.10
2019-05-10T09:36:14.128Z,67.90
2019-05-10T09:38:46.372Z,68.30
2019-05-10T09:41:13.864Z,71.30
2019-05-10T09:43:49.143Z,69.40
2019-05-10T09:46:14.158Z,67.50
2019-05-10T09:48:45.085Z,67.60
2019-05-10T09:51:13.906Z,66.40
2019-05-10T09:53:42.751Z,66.10
2019-05-10T09:56:11.563Z,62.00
2019-05-10T09:58:40.360Z,60.10
2019-05-10T10:01:17.644Z,59.70
2019-05-10T10:03:43.218Z,64.50
2019-05-10T10:06:11.307Z,68.80
2019-05-10T10:08:43.508Z,70.80
2019-05-10T10:11:15.860Z,77.80
2019-05-10T10:13:44.327Z,83.30
2019-05-10T10:16:14.884Z,85.20
2019-05-10T10:18:43.899Z,87.10
2019-05-10T10:21:13.316Z,89.30
2019-05-10T10:23:42.274Z,90.90
2019-05-10T10:26:12.675Z,90.90
2019-05-10T10:28:41.503Z,90.60
2019-05-10T10:31:10.302Z,90.60
2019-05-10T10:33:42.476Z,91.30
2019-05-10T10:36:10.688Z,86.80
2019-05-10T10:38:45.444Z,80.80
2019-05-10T10:41:09.967Z,79.70
2019-05-10T10:43:38.650Z,73.80
2019-05-10T10:46:11.950Z,71.50
2019-05-10T10:48:37.909Z,71.20
2019-05-10T10:51:08.114Z,72.80
2019-05-10T10:53:37.200Z,74.50
2019-05-10T10:56:07.703Z,73.20
2019-05-10T10:58:36.026Z,68.10
2019-05-10T11:01:10.726Z,66.10
2019-05-10T11:03:35.173Z,66.80
2019-05-10T11:06:03.888Z,62.80
2019-05-10T11:08:33.216Z,64.50
2019-05-10T11:11:02.575Z,61.30
2019-05-10T11:13:44.144Z,61.60
2019-05-10T11:16:09.626Z,61.20
2019-05-10T11:18:32.527Z,57.70
2019-05-10T11:21:01.939Z,54.60
2019-05-10T11:23:38.736Z,57.60
2019-05-10T11:26:01.427Z,57.10
2019-05-10T11:28:38.623Z,56.70
2019-05-10T11:31:01.165Z,58.60
2019-05-10T11:33:33.383Z,57.50
2019-05-10T11:36:06.469Z,63.70
2019-05-10T11:38:31.804Z,65.10
2019-05-10T11:41:01.939Z,65.00
2019-05-10T11:43:31.429Z,56.90
2019-05-10T11:46:00.340Z,59.30
2019-05-10T11:48:36.776Z,56.80
2019-05-10T11:50:59.690Z,55.00
2019-05-10T11:53:31.064Z,55.20
2019-05-10T11:56:01.791Z,54.20
2019-05-10T11:58:31.154Z,52.70
2019-05-10T12:01:08.794Z,57.20
2019-05-10T12:03:31.868Z,59.10
2019-05-10T12:06:06.275Z,57.80
2019-05-10T12:08:30.595Z,57.20
2019-05-10T12:11:10.248Z,58.70
2019-05-10T12:13:32.576Z,58.80
2019-05-10T12:15:59.902Z,59.50
2019-05-10T12:18:32.497Z,63.10
2019-05-10T12:21:08.888Z,65.00
2019-05-10T12:23:31.678Z,69.70
2019-05-10T12:27:13.262Z,72.20
2019-05-10T12:28:35.412Z,73.50
2019-05-10T12:31:01.508Z,69.60
2019-05-10T12:33:31.697Z,64.10
2019-05-10T12:36:00.594Z,63.90
2019-05-10T12:38:31.756Z,64.40
2019-05-10T12:41:01.369Z,64.30
2019-05-10T12:43:30.987Z,63.50
2019-05-10T12:45:59.836Z,61.70
2019-05-10T12:48:28.262Z,60.80
2019-05-10T12:51:01.978Z,59.20
2019-05-10T12:53:27.204Z,58.50
2019-05-10T12:55:55.902Z,57.50
2019-05-10T12:58:24.329Z,56.10
2019-05-10T13:00:54.543Z,58.20
2019-05-10T13:03:25.485Z,54.80
2019-05-10T13:05:53.818Z,55.70
2019-05-10T13:08:22.659Z,56.50
2019-05-10T13:10:51.383Z,56.80
2019-05-10T13:13:23.157Z,57.80
2019-05-10T13:15:50.579Z,59.40
2019-05-10T13:18:23.098Z,58.50
2019-05-10T13:20:49.425Z,56.20
2019-05-10T13:23:19.268Z,56.00
2019-05-10T13:25:47.969Z,57.20
2019-05-10T13:28:16.711Z,57.00
2019-05-10T13:30:45.441Z,58.10
2019-05-10T13:33:28.014Z,57.00
2019-05-10T13:35:44.316Z,56.20
2019-05-10T13:38:13.023Z,57.70
2019-05-10T13:40:45.934Z,57.80
2019-05-10T13:43:17.291Z,52.60
2019-05-10T13:45:45.539Z,54.00
2019-05-10T13:48:14.306Z,56.00
2019-05-10T13:50:43.089Z,55.60
2019-05-10T13:53:19.723Z,57.30
2019-05-10T13:55:42.130Z,59.20
2019-05-10T13:58:10.949Z,59.40
2019-05-10T14:00:39.429Z,60.70
2019-05-10T14:03:11.617Z,58.40
2019-05-10T14:05:40.112Z,57.10
2019-05-10T14:08:09.158Z,58.00
2019-05-10T14:10:37.917Z,58.00
2019-05-10T14:13:06.687Z,57.50
2019-05-10T14:15:35.467Z,58.80
2019-05-10T14:18:03.896Z,59.80
2019-05-10T14:20:32.577Z,61.20
2019-05-10T14:23:01.034Z,61.00
2019-05-10T14:25:36.433Z,61.10
2019-05-10T14:28:00.716Z,59.90
2019-05-10T14:30:29.416Z,63.30
2019-05-10T14:32:58.181Z,65.30
2019-05-10T14:35:26.610Z,64.50
2019-05-10T14:38:07.512Z,64.80
2019-05-10T14:40:28.107Z,64.80
2019-05-10T14:42:56.439Z,64.30
2019-05-10T14:45:25.228Z,64.90
2019-05-10T14:47:53.646Z,65.90
2019-05-10T14:50:26.315Z,66.30
2019-05-10T14:52:53.025Z,65.80
2019-05-10T14:55:21.443Z,65.30
2019-05-10T14:57:50.476Z,64.50
2019-05-10T15:00:23.619Z,67.00
2019-05-10T15:02:56.624Z,66.80
2019-05-10T15:05:22.384Z,65.20
2019-05-10T15:07:51.273Z,66.10
2019-05-10T15:10:20.249Z,66.20
2019-05-10T15:12:48.987Z,66.50
2019-05-10T15:15:17.686Z,67.80
2019-05-10T15:17:46.140Z,66.60
2019-05-10T15:20:14.958Z,66.80
2019-05-10T15:22:43.807Z,68.00
2019-05-10T15:25:12.435Z,69.80
2019-05-10T15:27:41.337Z,70.00
2019-05-10T15:30:10.519Z,71.70
2019-05-10T15:32:39.289Z,72.00
2019-05-10T15:35:08.994Z,73.10
2019-05-10T15:37:40.715Z,73.30
2019-05-10T15:40:10.004Z,74.20
2019-05-10T15:42:38.873Z,74.10
2019-05-10T15:45:12.010Z,76.00
2019-05-10T15:47:50.848Z,75.80
2019-05-10T15:50:10.259Z,75.30
2019-05-10T15:52:46.525Z,74.70
2019-05-10T15:55:09.931Z,73.60
2019-05-10T15:57:38.766Z,74.40
2019-05-10T16:00:09.315Z,73.80
2019-05-10T16:02:38.194Z,72.60
2019-05-10T16:05:23.201Z,72.20
2019-05-10T16:07:38.834Z,73.10
2019-05-10T16:10:07.928Z,73.00
2019-05-10T16:12:37.879Z,73.40
2019-05-10T16:15:13.634Z,73.10
2019-05-10T16:17:38.667Z,74.60
2019-05-10T16:20:07.763Z,76.00
2019-05-10T16:22:36.370Z,75.30
2019-05-10T16:25:06.720Z,75.90
2019-05-10T16:27:41.693Z,75.30
2019-05-10T16:30:11.962Z,75.60
2019-05-10T16:32:40.340Z,75.20
2019-05-10T16:35:12.838Z,74.50
2019-05-10T16:37:39.732Z,73.30
2019-05-10T16:40:09.519Z,73.70
2019-05-10T16:42:38.340Z,75.00
2019-05-10T16:45:08.022Z,75.60
2019-05-10T16:47:36.718Z,76.90
2019-05-10T16:50:09.443Z,76.00
2019-05-10T16:52:37.937Z,74.60
2019-05-10T16:55:09.560Z,74.00
2019-05-10T16:57:39.341Z,74.60
2019-05-10T17:00:10.676Z,73.00
2019-05-10T17:02:42.264Z,74.30
2019-05-10T17:05:15.028Z,73.70
2019-05-10T17:07:40.566Z,75.80
2019-05-10T17:10:09.831Z,76.30
2019-05-10T17:12:38.575Z,73.50
2019-05-10T17:15:07.602Z,75.10
2019-05-10T17:17:37.015Z,75.20
2019-05-10T17:20:13.917Z,76.10
2019-05-10T17:22:39.113Z,74.70
2019-05-10T17:25:09.564Z,73.80
2019-05-10T17:27:38.328Z,75.00
2019-05-10T17:30:07.756Z,75.80
2019-05-10T17:32:36.637Z,76.60
2019-05-10T17:35:08.772Z,77.00
2019-05-10T17:37:37.692Z,76.30
2019-05-10T17:40:16.183Z,78.00
2019-05-10T17:42:52.974Z,78.90
2019-05-10T17:48:18.222Z,81.00
2019-05-10T17:50:48.370Z,82.60
2019-05-10T17:53:34.673Z,83.40
2019-05-10T17:56:05.830Z,85.20
2019-05-10T17:58:35.027Z,85.20
2019-05-10T18:01:04.085Z,85.80
2019-05-10T18:06:47.315Z,87.10
2019-05-10T18:09:35.283Z,87.10
2019-05-10T18:12:04.275Z,87.50
2019-05-10T18:15:11.970Z,88.80
2019-05-10T18:17:40.828Z,89.60
2019-05-10T18:20:09.984Z,89.20
2019-05-10T18:22:42.981Z,90.50
2019-05-10T18:25:19.583Z,90.80
2019-05-10T18:27:39.575Z,91.50
2019-05-10T18:30:09.371Z,91.20
2019-05-10T18:32:39.022Z,91.00
2019-05-10T18:35:14.763Z,91.30
2019-05-10T18:37:40.574Z,92.10
2019-05-10T18:40:10.115Z,92.30
2019-05-10T18:42:38.996Z,92.40
2019-05-10T18:45:13.094Z,92.30
2019-05-10T18:47:41.961Z,92.50
2019-05-10T18:50:11.007Z,92.60
2019-05-10T18:52:40.274Z,92.40
2019-05-10T18:55:10.851Z,92.50
2019-05-10T18:57:45.175Z,92.60
2019-05-10T19:00:10.857Z,93.00
2019-05-10T19:02:39.460Z,93.10
2019-05-10T19:05:08.451Z,93.00
2019-05-10T19:07:37.231Z,93.60
2019-05-10T19:10:07.876Z,93.90
2019-05-10T19:12:37.235Z,94.10
2019-05-10T19:15:15.165Z,94.70
2019-05-10T19:17:47.365Z,94.70
2019-05-10T19:20:18.526Z,94.90
2019-05-10T19:22:47.532Z,94.80
2019-05-10T19:25:16.785Z,94.60
2019-05-10T19:27:50.515Z,95.00
2019-05-10T19:30:19.983Z,95.00
2019-05-10T19:32:50.929Z,94.70
2019-05-10T19:35:17.191Z,94.50
2019-05-10T19:37:46.022Z,95.00
2019-05-10T19:40:16.734Z,95.00
2019-05-10T19:42:49.138Z,94.90
2019-05-10T19:45:19.394Z,95.10
2019-05-10T19:47:49.803Z,95.20
2019-05-10T19:50:17.478Z,95.20
2019-05-10T19:52:46.230Z,95.40
2019-05-10T19:55:19.347Z,95.70
2019-05-10T19:57:49.596Z,96.20
2019-05-10T20:00:17.407Z,96.30
2019-05-10T20:02:46.190Z,96.50
2019-05-10T20:05:15.363Z,96.30
2019-05-10T20:07:46.410Z,96.50
2019-05-10T20:10:14.405Z,96.40
2019-05-10T20:12:43.276Z,96.60
2019-05-10T20:15:11.930Z,96.80
2019-05-10T20:17:40.479Z,96.90
2019-05-10T20:20:10.227Z,96.70
2019-05-10T20:22:38.992Z,96.80
2019-05-10T20:25:08.487Z,96.90
2019-05-10T20:27:37.201Z,97.00
2019-05-10T20:30:08.076Z,97.10
2019-05-10T20:32:36.912Z,97.20
2019-05-10T20:35:09.151Z,97.10
2019-05-10T20:37:38.783Z,97.30
2019-05-10T20:40:08.409Z,97.40
2019-05-10T20:42:37.229Z,97.30
2019-05-10T20:45:08.459Z,97.20
2019-05-10T20:47:36.802Z,97.10
2019-05-10T20:50:06.253Z,97.00
2019-05-10T20:52:34.700Z,96.80
2019-05-10T20:55:03.763Z,96.80
2019-05-10T20:57:32.579Z,96.70
2019-05-10T21:00:01.067Z,97.00
2019-05-10T21:02:30.085Z,97.00
2019-05-10T21:05:00.505Z,97.10
2019-05-10T21:07:29.339Z,97.40
2019-05-10T21:09:58.213Z,97.30
2019-05-10T21:12:27.041Z,97.10
2019-05-10T21:14:55.767Z,97.30
2019-05-10T21:17:24.533Z,97.30
2019-05-10T21:19:53.284Z,97.20
2019-05-10T21:22:22.011Z,97.10
2019-05-10T21:24:50.783Z,96.90
2019-05-10T21:27:19.609Z,96.70
2019-05-10T21:29:48.378Z,96.90
2019-05-10T21:32:17.278Z,97.20
2019-05-10T21:34:46.080Z,97.20
2019-05-10T21:37:14.612Z,97.30
2019-05-10T21:39:44.466Z,97.30
2019-05-10T21:42:13.240Z,97.40
2019-05-10T21:44:41.980Z,97.20
2019-05-10T21:47:10.761Z,97.30
2019-05-10T21:49:39.599Z,97.60
2019-05-10T21:52:08.505Z,97.60
2019-05-10T21:54:37.294Z,97.50
2019-05-10T21:57:06.071Z,97.50
2019-05-10T21:59:34.819Z,97.60
2019-05-10T22:02:03.781Z,97.50
2019-05-10T22:04:32.772Z,97.40
2019-05-10T22:07:01.532Z,97.50
2019-05-10T22:09:30.290Z,96.90
2019-05-10T22:12:00.099Z,97.40
2019-05-10T22:14:29.148Z,97.50
2019-05-10T22:16:57.984Z,97.50
2019-05-10T22:19:26.517Z,97.50
2019-05-10T22:21:55.587Z,97.50
2019-05-10T22:24:24.496Z,97.50
2019-05-10T22:26:53.216Z,97.80
2019-05-10T22:29:21.956Z,97.80
2019-05-10T22:31:51.957Z,98.20
2019-05-10T22:34:20.765Z,98.00
2019-05-10T22:36:49.581Z,97.80
2019-05-10T22:39:18.451Z,97.80
2019-05-10T22:41:47.350Z,98.00
2019-05-10T22:44:16.166Z,97.90
2019-05-10T22:46:44.923Z,97.80
2019-05-10T22:49:13.383Z,98.00
2019-05-10T22:51:42.287Z,98.00
2019-05-10T22:54:10.779Z,98.00
2019-05-10T22:56:39.521Z,98.20
2019-05-10T22:59:08.014Z,98.10
2019-05-10T23:01:36.857Z,98.30
2019-05-10T23:04:05.592Z,98.40
2019-05-10T23:06:34.358Z,98.50
2019-05-10T23:09:03.060Z,98.60
2019-05-10T23:11:31.803Z,98.80
2019-05-10T23:14:00.590Z,98.80
2019-05-10T23:16:30.511Z,98.70
2019-05-10T23:18:59.323Z,98.90
2019-05-10T23:21:28.126Z,98.70
2019-05-10T23:23:56.867Z,98.50
2019-05-10T23:26:25.338Z,98.40
2019-05-10T23:28:54.225Z,98.60
2019-05-10T23:31:22.990Z,98.60
2019-05-10T23:33:51.806Z,98.60
2019-05-10T23:36:20.248Z,98.80
2019-05-10T23:38:52.137Z,98.70
2019-05-10T23:41:19.489Z,98.90
2019-05-10T23:43:48.553Z,98.90
2019-05-10T23:46:17.325Z,98.80
2019-05-10T23:48:46.043Z,98.60
2019-05-10T23:51:14.765Z,98.70
2019-05-10T23:53:43.524Z,99.20
2019-05-10T23:56:12.244Z,98.90
2019-05-10T23:58:40.972Z,98.90
